createdAt,value
2018-04-06T00:01:54.323Z,0.80
2018-04-06T00:04:22.250Z,0.67
2018-04-06T00:06:49.818Z,0.80
2018-04-06T00:09:17.343Z,0.80
2018-04-06T00:11:44.869Z,0.60
2018-04-06T00:14:12.808Z,0.70
2018-04-06T00:16:40.766Z,0.60
2018-04-06T00:19:08.288Z,0.70
2018-04-06T00:21:35.815Z,0.90
2018-04-06T00:24:03.724Z,0.87
2018-04-06T00:26:31.279Z,0.70
2018-04-06T00:28:58.779Z,0.60
2018-04-06T00:31:26.328Z,0.80
2018-04-06T00:33:53.954Z,0.80
2018-04-06T00:36:21.491Z,0.87
2018-04-06T00:38:49.036Z,0.90
2018-04-06T00:41:16.984Z,0.83
2018-04-06T00:43:44.607Z,0.73
2018-04-06T00:46:12.136Z,1.10
2018-04-06T00:48:39.635Z,0.87
2018-04-06T00:51:07.159Z,0.90
2018-04-06T00:53:46.453Z,0.83
2018-04-06T00:56:13.987Z,1.03
2018-04-06T00:58:41.501Z,1.00
2018-04-06T01:01:09.032Z,1.60
2018-04-06T01:03:36.628Z,1.57
2018-04-06T01:06:04.163Z,1.50
2018-04-06T01:08:31.667Z,1.10
2018-04-06T01:10:59.184Z,1.27
2018-04-06T01:13:26.730Z,1.30
2018-04-06T01:15:54.623Z,1.23
2018-04-06T01:18:22.163Z,1.20
2018-04-06T01:20:50.070Z,1.40
2018-04-06T01:23:17.589Z,1.50
2018-04-06T01:25:45.518Z,0.90
2018-04-06T01:28:13.048Z,1.50
2018-04-06T01:30:40.547Z,1.10
2018-04-06T01:33:08.200Z,1.20
2018-04-06T01:35:35.699Z,1.30
2018-04-06T01:38:03.230Z,1.00
2018-04-06T01:40:31.128Z,1.20
2018-04-06T01:42:59.016Z,1.10
2018-04-06T01:45:26.852Z,1.60
2018-04-06T01:47:54.683Z,1.10
2018-04-06T01:50:22.199Z,0.97
2018-04-06T01:52:49.759Z,1.20
2018-04-06T01:55:17.270Z,1.20
2018-04-06T01:57:45.190Z,1.00
2018-04-06T02:00:12.695Z,0.90
2018-04-06T02:02:40.627Z,1.30
2018-04-06T02:05:08.143Z,0.90
2018-04-06T02:07:35.683Z,1.07
2018-04-06T02:10:03.575Z,1.23
2018-04-06T02:12:31.087Z,0.80
2018-04-06T02:14:58.617Z,0.83
2018-04-06T02:17:26.128Z,0.80
2018-04-06T02:19:54.059Z,1.47
2018-04-06T02:22:21.559Z,1.00
2018-04-06T02:24:49.529Z,1.10
2018-04-06T02:27:17.425Z,1.20
2018-04-06T02:29:45.390Z,1.37
2018-04-06T02:32:12.911Z,1.00
2018-04-06T02:34:40.812Z,1.67
2018-04-06T02:37:08.472Z,1.87
2018-04-06T02:39:35.998Z,1.50
2018-04-06T02:42:03.912Z,1.90
2018-04-06T02:44:31.429Z,1.40
2018-04-06T02:46:59.420Z,1.20
2018-04-06T02:49:26.926Z,1.50
2018-04-06T02:51:54.456Z,1.10
2018-04-06T02:54:21.975Z,1.23
2018-04-06T02:56:49.904Z,1.30
2018-04-06T02:59:17.439Z,0.90
2018-04-06T03:01:44.995Z,0.90
2018-04-06T03:04:12.543Z,1.33
2018-04-06T03:06:40.063Z,0.80
2018-04-06T03:09:08.098Z,0.80
2018-04-06T03:11:35.609Z,0.63
2018-04-06T03:14:03.136Z,1.00
2018-04-06T03:16:30.641Z,0.93
2018-04-06T03:18:58.189Z,1.20
2018-04-06T03:21:25.684Z,1.10
2018-04-06T03:23:53.205Z,1.23
2018-04-06T03:26:20.720Z,1.27
2018-04-06T03:28:48.247Z,1.27
2018-04-06T03:31:15.757Z,0.97
2018-04-06T03:33:43.687Z,1.00
2018-04-06T03:36:11.198Z,0.90
2018-04-06T03:38:38.824Z,1.13
2018-04-06T03:41:06.317Z,1.20
2018-04-06T03:43:33.899Z,1.30
2018-04-06T03:46:01.452Z,1.60
2018-04-06T03:48:29.008Z,1.00
2018-04-06T03:50:56.539Z,0.90
2018-04-06T03:53:24.444Z,0.80
2018-04-06T03:55:52.007Z,1.00
2018-04-06T03:58:19.517Z,1.10
2018-04-06T04:00:47.462Z,1.17
2018-04-06T04:03:14.983Z,0.80
2018-04-06T04:05:42.636Z,1.20
2018-04-06T04:08:10.131Z,1.30
2018-04-06T04:10:37.755Z,0.93
2018-04-06T04:13:05.259Z,1.13
2018-04-06T04:15:32.810Z,0.90
2018-04-06T04:18:00.436Z,1.07
2018-04-06T04:20:27.955Z,0.80
2018-04-06T04:22:55.876Z,1.10
2018-04-06T04:25:23.400Z,1.10
2018-04-06T04:27:50.946Z,1.00
2018-04-06T04:30:18.849Z,0.90
2018-04-06T04:32:46.371Z,0.77
2018-04-06T04:35:13.973Z,1.07
2018-04-06T04:37:41.495Z,0.90
2018-04-06T04:40:08.995Z,1.00
2018-04-06T04:42:36.528Z,1.03
2018-04-06T04:45:04.032Z,1.13
2018-04-06T04:47:31.562Z,1.00
2018-04-06T04:49:59.069Z,1.13
2018-04-06T04:52:26.995Z,0.90
2018-04-06T04:54:54.520Z,1.10
2018-04-06T04:57:22.019Z,1.03
2018-04-06T04:59:49.567Z,1.93
2018-04-06T05:02:17.093Z,1.60
2018-04-06T05:04:44.656Z,1.30
2018-04-06T05:07:12.166Z,1.10
2018-04-06T05:09:39.698Z,1.17
2018-04-06T05:12:07.216Z,1.20
2018-04-06T05:14:34.757Z,1.20
2018-04-06T05:17:02.659Z,1.50
2018-04-06T05:19:30.195Z,1.23
2018-04-06T05:21:57.707Z,1.57
2018-04-06T05:24:25.257Z,1.47
2018-04-06T05:26:52.767Z,1.40
2018-04-06T05:29:20.299Z,1.20
2018-04-06T05:31:47.807Z,1.33
2018-04-06T05:34:15.317Z,1.13
2018-04-06T05:36:43.328Z,1.93
2018-04-06T05:39:10.954Z,1.53
2018-04-06T05:41:38.878Z,2.03
2018-04-06T05:44:06.396Z,1.60
2018-04-06T05:46:34.330Z,2.20
2018-04-06T05:49:01.878Z,1.47
2018-04-06T05:51:29.447Z,1.60
2018-04-06T05:53:56.957Z,1.83
2018-04-06T05:56:24.474Z,2.07
2018-04-06T05:58:52.383Z,1.87
2018-04-06T06:01:19.924Z,1.77
2018-04-06T06:03:47.432Z,2.60
2018-04-06T06:06:14.978Z,2.00
2018-04-06T06:08:42.491Z,1.90
2018-04-06T06:11:10.395Z,1.87
2018-04-06T06:13:37.921Z,2.40
2018-04-06T06:16:05.426Z,2.20
2018-04-06T06:18:32.962Z,1.87
2018-04-06T06:21:00.473Z,2.17
2018-04-06T06:23:28.573Z,2.13
2018-04-06T06:25:56.083Z,2.27
2018-04-06T06:28:23.613Z,2.90
2018-04-06T06:30:51.137Z,3.93
2018-04-06T06:33:18.716Z,3.97
2018-04-06T06:35:46.216Z,4.30
2018-04-06T06:38:13.755Z,3.43
2018-04-06T06:40:41.346Z,2.47
2018-04-06T06:43:09.300Z,2.63
2018-04-06T06:45:36.807Z,2.67
2018-04-06T06:48:04.353Z,3.10
2018-04-06T06:50:32.346Z,2.73
2018-04-06T06:52:59.900Z,2.60
2018-04-06T06:55:27.874Z,2.60
2018-04-06T06:57:55.496Z,2.73
2018-04-06T07:00:23.425Z,2.63
2018-04-06T07:02:50.964Z,2.33
2018-04-06T07:05:18.491Z,2.30
2018-04-06T07:07:46.396Z,3.33
2018-04-06T07:10:13.932Z,2.70
2018-04-06T07:12:41.447Z,3.50
2018-04-06T07:15:09.011Z,2.87
2018-04-06T07:17:36.534Z,3.13
2018-04-06T07:20:04.161Z,2.90
2018-04-06T07:22:31.733Z,3.10
2018-04-06T07:24:59.264Z,2.87
2018-04-06T07:27:27.187Z,3.30
2018-04-06T07:29:54.723Z,3.17
2018-04-06T07:32:22.278Z,3.22
2018-04-06T07:34:49.839Z,2.78
2018-04-06T07:37:17.360Z,3.37
2018-04-06T07:39:45.291Z,3.83
2018-04-06T07:42:12.819Z,3.78
2018-04-06T07:44:40.357Z,4.20
2018-04-06T07:47:07.883Z,3.12
2018-04-06T07:49:35.497Z,3.63
2018-04-06T07:52:03.182Z,3.67
2018-04-06T07:54:30.724Z,2.53
2018-04-06T07:56:58.311Z,2.93
2018-04-06T07:59:25.855Z,3.87
2018-04-06T08:01:53.411Z,3.67
2018-04-06T08:04:20.931Z,4.00
2018-04-06T08:06:48.870Z,3.57
2018-04-06T08:09:16.804Z,4.13
2018-04-06T08:11:44.339Z,3.80
2018-04-06T08:14:11.947Z,3.17
2018-04-06T08:16:39.480Z,3.50
2018-04-06T08:19:06.992Z,4.33
2018-04-06T08:21:34.923Z,4.50
2018-04-06T08:24:02.572Z,3.70
2018-04-06T08:26:30.152Z,3.87
2018-04-06T08:28:57.656Z,3.62
2018-04-06T08:31:25.187Z,3.67
2018-04-06T08:33:53.079Z,3.75
2018-04-06T08:36:20.626Z,3.55
2018-04-06T08:38:48.150Z,2.65
2018-04-06T08:41:15.838Z,4.35
2018-04-06T08:43:43.772Z,3.70
2018-04-06T08:46:11.299Z,3.92
2018-04-06T08:48:38.829Z,2.90
2018-04-06T08:51:06.379Z,2.90
2018-04-06T08:53:34.380Z,3.87
2018-04-06T08:56:01.904Z,3.30
2018-04-06T08:58:29.880Z,4.12
2018-04-06T09:00:57.802Z,3.47
2018-04-06T09:03:25.336Z,3.80
2018-04-06T09:05:52.869Z,3.92
2018-04-06T09:08:20.412Z,4.32
2018-04-06T09:10:48.325Z,3.78
2018-04-06T09:13:16.052Z,3.87
2018-04-06T09:15:43.952Z,4.28
2018-04-06T09:18:11.480Z,3.37
2018-04-06T09:20:39.403Z,4.03
2018-04-06T09:23:06.928Z,4.28
2018-04-06T09:25:34.456Z,4.03
2018-04-06T09:28:02.363Z,4.15
2018-04-06T09:30:29.909Z,3.97
2018-04-06T09:32:57.431Z,4.30
2018-04-06T09:35:25.358Z,4.53
2018-04-06T09:37:52.879Z,3.47
2018-04-06T09:40:20.419Z,4.10
2018-04-06T09:42:48.340Z,3.70
2018-04-06T09:45:15.868Z,3.45
2018-04-06T09:47:43.406Z,4.07
2018-04-06T09:50:11.360Z,3.50
2018-04-06T09:52:38.883Z,4.12
2018-04-06T09:55:06.400Z,3.53
2018-04-06T09:57:33.918Z,3.62
2018-04-06T10:00:01.430Z,4.07
2018-04-06T10:02:28.965Z,3.08
2018-04-06T10:04:56.883Z,3.75
2018-04-06T10:07:24.523Z,3.72
2018-04-06T10:09:52.034Z,3.10
2018-04-06T10:12:19.570Z,3.30
2018-04-06T10:14:47.107Z,3.85
2018-04-06T10:17:14.636Z,3.85
2018-04-06T10:19:42.148Z,3.45
2018-04-06T10:22:09.780Z,2.92
2018-04-06T10:24:37.316Z,3.78
2018-04-06T10:27:04.862Z,3.70
2018-04-06T10:29:32.767Z,3.40
2018-04-06T10:32:00.360Z,3.47
2018-04-06T10:34:27.875Z,3.20
2018-04-06T10:36:55.448Z,2.87
2018-04-06T10:39:23.006Z,2.90
2018-04-06T10:41:50.519Z,3.45
2018-04-06T10:44:18.527Z,3.35
2018-04-06T10:46:46.087Z,2.83
2018-04-06T10:49:13.633Z,3.05
2018-04-06T10:51:41.155Z,2.90
2018-04-06T10:54:09.087Z,3.15
2018-04-06T10:56:36.599Z,3.12
2018-04-06T10:59:04.130Z,3.05
2018-04-06T11:01:31.636Z,2.92
2018-04-06T11:03:59.181Z,3.40
2018-04-06T11:06:26.827Z,3.30
2018-04-06T11:08:54.414Z,2.15
2018-04-06T11:11:21.956Z,2.20
2018-04-06T11:13:49.479Z,2.62
2018-04-06T11:16:17.315Z,2.20
2018-04-06T11:18:44.852Z,2.17
2018-04-06T11:21:12.376Z,2.23
2018-04-06T11:23:40.276Z,2.43
2018-04-06T11:26:07.867Z,2.00
2018-04-06T11:28:35.388Z,2.23
2018-04-06T11:31:02.931Z,1.95
2018-04-06T11:33:30.456Z,1.77
2018-04-06T11:35:58.018Z,2.45
2018-04-06T11:38:25.940Z,2.70
2018-04-06T11:40:53.476Z,2.43
2018-04-06T11:43:21.064Z,2.53
2018-04-06T11:45:48.583Z,1.80
2018-04-06T11:48:16.515Z,2.43
2018-04-06T11:50:44.145Z,3.10
2018-04-06T11:53:11.680Z,3.12
2018-04-06T11:55:39.586Z,2.07
2018-04-06T11:58:07.152Z,2.50
2018-04-06T12:00:34.670Z,1.00
2018-04-06T12:03:02.263Z,1.70
2018-04-06T12:05:29.787Z,1.40
2018-04-06T12:07:57.327Z,1.70
2018-04-06T12:10:25.236Z,2.20
2018-04-06T12:12:52.841Z,1.50
2018-04-06T12:15:20.356Z,1.33
2018-04-06T12:17:47.883Z,1.47
2018-04-06T12:20:15.418Z,1.90
2018-04-06T12:22:43.353Z,1.70
2018-04-06T12:25:10.876Z,2.00
2018-04-06T12:27:38.424Z,2.05
2018-04-06T12:30:06.028Z,1.58
2018-04-06T12:32:33.544Z,2.03
2018-04-06T12:35:01.103Z,1.90
2018-04-06T12:37:28.637Z,1.70
2018-04-06T12:39:56.173Z,2.50
2018-04-06T12:42:23.706Z,2.37
2018-04-06T12:44:51.229Z,1.90
2018-04-06T12:47:18.748Z,2.00
2018-04-06T12:49:46.304Z,1.80
2018-04-06T12:52:13.833Z,2.95
2018-04-06T12:54:41.370Z,2.07
2018-04-06T12:57:08.884Z,2.47
2018-04-06T12:59:36.411Z,1.92
2018-04-06T13:02:03.924Z,3.00
2018-04-06T13:04:31.875Z,2.75
2018-04-06T13:06:59.395Z,2.97
2018-04-06T13:09:26.963Z,2.33
2018-04-06T13:11:55.327Z,2.30
2018-04-06T13:14:22.836Z,3.17
2018-04-06T13:16:50.916Z,2.42
2018-04-06T13:19:18.837Z,3.08
2018-04-06T13:21:46.369Z,2.47
2018-04-06T13:24:13.889Z,2.47
2018-04-06T13:26:41.415Z,2.10
2018-04-06T13:29:08.947Z,1.98
2018-04-06T13:31:36.499Z,2.30
2018-04-06T13:34:04.021Z,2.50
2018-04-06T13:36:31.555Z,2.25
2018-04-06T13:38:59.081Z,2.80
2018-04-06T13:41:26.779Z,2.70
2018-04-06T13:43:54.726Z,2.83
2018-04-06T13:46:22.291Z,2.70
2018-04-06T13:48:49.934Z,3.22
2018-04-06T13:51:17.448Z,2.33
2018-04-06T13:53:45.054Z,2.25
2018-04-06T13:56:12.581Z,2.50
2018-04-06T13:58:40.514Z,2.30
2018-04-06T14:01:08.075Z,2.50
2018-04-06T14:03:35.612Z,3.00
2018-04-06T14:06:03.128Z,2.80
2018-04-06T14:08:30.683Z,2.97
2018-04-06T14:10:58.606Z,2.85
2018-04-06T14:13:26.150Z,3.25
2018-04-06T14:15:53.678Z,3.12
2018-04-06T14:18:21.219Z,3.40
2018-04-06T14:20:49.435Z,3.40
2018-04-06T14:23:16.968Z,2.95
2018-04-06T14:25:44.479Z,3.70
2018-04-06T14:28:12.011Z,3.53
2018-04-06T14:30:39.531Z,3.87
2018-04-06T14:33:07.467Z,3.80
2018-04-06T14:35:35.095Z,3.80
2018-04-06T14:38:02.616Z,2.87
2018-04-06T14:40:30.162Z,3.67
2018-04-06T14:42:58.084Z,4.10
2018-04-06T14:45:25.740Z,3.83
2018-04-06T14:47:53.262Z,3.90
2018-04-06T14:50:21.279Z,3.55
